Time,TemperatureF,DewpointF,PressureIn,WindDirection,WindDirectionDegrees,WindSpeedMPH,WindSpeedGustMPH,Humidity,HourlyPrecipIn,Conditions,Clouds,dailyrainin,SoftwareType,DateUTC
2013-07-18 00:11:00,67.0,53.0,29.93,East,84,0.0,11.0,62,0.00,,,0.00,weatherlink.com 1.10,2013-07-18 06:11:00,
2013-07-18 00:26:00,66.7,54.0,29.93,East,94,6.0,14.0,63,0.00,,,0.00,weatherlink.com 1.10,2013-07-18 06:26:00,
2013-07-18 00:41:00,66.5,54.0,29.92,East,101,0.0,12.0,64,0.00,,,0.00,weatherlink.com 1.10,2013-07-18 06:41:00,
2013-07-18 00:56:00,66.4,54.0,29.92,ESE,108,0.0,16.0,64,0.00,,,0.00,weatherlink.com 1.10,2013-07-18 06:56:00,
2013-07-18 01:11:00,66.4,53.0,29.92,NE,46,1.0,14.0,63,0.00,,,0.00,weatherlink.com 1.10,2013-07-18 07:11:00,
2013-07-18 01:26:00,66.3,53.0,29.91,SE,134,2.0,13.0,63,0.00,,,0.00,weatherlink.com 1.10,2013-07-18 07:26:00,
2013-07-18 01:41:00,66.1,53.0,29.91,ESE,109,7.0,10.0,63,0.00,,,0.00,weatherlink.com 1.10,2013-07-18 07:41:00,
2013-07-18 01:56:00,65.9,53.0,29.91,NE,49,2.0,8.0,63,0.00,,,0.00,weatherlink.com 1.10,2013-07-18 07:56:00,
2013-07-18 02:11:00,65.7,53.0,29.91,ESE,111,1.0,11.0,64,0.00,,,0.00,weatherlink.com 1.10,2013-07-18 08:11:00,
2013-07-18 02:26:00,65.6,53.0,29.90,ENE,73,11.0,13.0,63,0.00,,,0.00,weatherlink.com 1.10,2013-07-18 08:26:00,
2013-07-18 02:41:00,65.4,52.0,29.90,ESE,103,4.0,9.0,62,0.00,,,0.00,weatherlink.com 1.10,2013-07-18 08:41:00,
2013-07-18 02:56:00,65.3,52.0,29.89,NNE,13,3.0,14.0,63,0.00,,,0.00,weatherlink.com 1.10,2013-07-18 08:56:00,
2013-07-18 03:11:00,65.0,52.0,29.89,ENE,76,1.0,9.0,63,0.00,,,0.00,weatherlink.com 1.10,2013-07-18 09:11:00,
2013-07-18 03:26:00,64.6,52.0,29.89,East,87,0.0,6.0,63,0.00,,,0.00,weatherlink.com 1.10,2013-07-18 09:26:00,
2013-07-18 03:41:00,64.5,52.0,29.89,ENE,66,3.0,6.0,64,0.00,,,0.00,weatherlink.com 1.10,2013-07-18 09:41:00,
2013-07-18 03:57:00,64.5,52.0,29.89,ENE,64,0.0,11.0,64,0.00,,,0.00,weatherlink.com 1.10,2013-07-18 09:57:00,
2013-07-18 04:12:00,64.2,52.0,29.89,East,82,0.0,4.0,65,0.00,,,0.00,weatherlink.com 1.10,2013-07-18 10:12:00,
2013-07-18 04:27:00,63.8,52.0,29.89,ENE,58,0.0,4.0,66,0.00,,,0.00,weatherlink.com 1.10,2013-07-18 10:27:00,
2013-07-18 04:42:00,63.5,52.0,29.89,East,101,0.0,0.0,66,0.00,,,0.00,weatherlink.com 1.10,2013-07-18 10:42:00,
2013-07-18 04:57:00,63.2,52.0,29.89,ENE,71,0.0,2.0,67,0.00,,,0.00,weatherlink.com 1.10,2013-07-18 10:57:00,
2013-07-18 05:12:00,63.0,52.0,29.89,ENE,77,0.0,2.0,68,0.00,,,0.00,weatherlink.com 1.10,2013-07-18 11:12:00,
2013-07-18 05:27:00,62.8,52.0,29.90,ENE,67,0.0,0.0,68,0.00,,,0.00,weatherlink.com 1.10,2013-07-18 11:27:00,
2013-07-18 05:42:00,62.6,52.0,29.90,ENE,60,0.0,1.0,68,0.00,,,0.00,weatherlink.com 1.10,2013-07-18 11:42:00,
2013-07-18 05:57:00,61.9,52.0,29.90,ENE,60,0.0,0.0,70,0.00,,,0.00,weatherlink.com 1.10,2013-07-18 11:57:00,
2013-07-18 06:12:00,61.2,52.0,29.91,NW,322,0.0,0.0,72,0.00,,,0.00,weatherlink.com 1.10,2013-07-18 12:12:00,
2013-07-18 06:27:00,61.1,52.0,29.91,NNE,18,0.0,0.0,73,0.00,,,0.00,weatherlink.com 1.10,2013-07-18 12:27:00,
2013-07-18 06:42:00,61.4,53.0,29.91,SE,130,0.0,0.0,74,0.00,,,0.00,weatherlink.com 1.10,2013-07-18 12:42:00,
2013-07-18 06:57:00,62.4,53.0,29.91,NNE,32,0.0,1.0,71,0.00,,,0.00,weatherlink.com 1.10,2013-07-18 12:57:00,
2013-07-18 07:12:00,63.7,53.0,29.91,NNE,32,0.0,0.0,69,0.00,,,0.00,weatherlink.com 1.10,2013-07-18 13:12:00,
2013-07-18 07:27:00,65.4,53.0,29.91,NE,53,4.0,4.0,64,0.00,,,0.00,weatherlink.com 1.10,2013-07-18 13:27:00,
2013-07-18 07:42:00,65.2,53.0,29.90,NNE,23,0.0,3.0,64,0.00,,,0.00,weatherlink.com 1.10,2013-07-18 13:42:00,
2013-07-18 07:57:00,65.0,53.0,29.90,NE,36,0.0,2.0,65,0.00,,,0.00,weatherlink.com 1.10,2013-07-18 13:57:00,
2013-07-18 08:12:00,64.9,54.0,29.90,NNW,328,0.0,2.0,67,0.00,,,0.00,weatherlink.com 1.10,2013-07-18 14:12:00,
2013-07-18 08:27:00,65.4,54.0,29.90,NW,310,0.0,0.0,67,0.00,,,0.00,weatherlink.com 1.10,2013-07-18 14:27:00,
2013-07-18 08:42:00,66.5,54.0,29.90,NNW,346,0.0,0.0,64,0.00,,,0.00,weatherlink.com 1.10,2013-07-18 14:42:00,
2013-07-18 08:57:00,68.5,54.0,29.90,North,355,2.0,5.0,60,0.00,,,0.00,weatherlink.com 1.10,2013-07-18 14:57:00,
2013-07-18 09:12:00,69.9,52.0,29.90,North,350,4.0,5.0,54,0.00,,,0.00,weatherlink.com 1.10,2013-07-18 15:12:00,
2013-07-18 09:27:00,70.7,53.0,29.89,West,274,0.0,6.0,54,0.00,,,0.00,weatherlink.com 1.10,2013-07-18 15:27:00,
2013-07-18 09:42:00,71.3,53.0,29.89,SE,132,0.0,3.0,52,0.00,,,0.00,weatherlink.com 1.10,2013-07-18 15:42:00,
2013-07-18 09:57:00,73.3,53.0,29.88,NW,323,1.0,5.0,50,0.00,,,0.00,weatherlink.com 1.10,2013-07-18 15:57:00,
2013-07-18 10:12:00,73.8,52.0,29.88,WNW,299,0.0,2.0,47,0.00,,,0.00,weatherlink.com 1.10,2013-07-18 16:12:00,
2013-07-18 10:27:00,74.1,52.0,29.87,NW,311,2.0,8.0,47,0.00,,,0.00,weatherlink.com 1.10,2013-07-18 16:27:00,
2013-07-18 10:42:00,75.2,52.0,29.86,NNE,13,0.0,3.0,45,0.00,,,0.00,weatherlink.com 1.10,2013-07-18 16:42:00,
2013-07-18 10:57:00,75.5,53.0,29.86,ESE,118,0.0,4.0,45,0.00,,,0.00,weatherlink.com 1.10,2013-07-18 16:57:00,
2013-07-18 11:12:00,76.1,53.0,29.85,SSW,211,2.0,6.0,44,0.00,,,0.00,weatherlink.com 1.10,2013-07-18 17:12:00,
2013-07-18 11:27:00,77.5,53.0,29.85,WSW,255,1.0,5.0,42,0.00,,,0.00,weatherlink.com 1.10,2013-07-18 17:27:00,
2013-07-18 11:42:00,78.3,53.0,29.85,SW,215,0.0,5.0,41,0.00,,,0.00,weatherlink.com 1.10,2013-07-18 17:42:00,
2013-07-18 11:58:00,79.0,52.0,29.85,West,278,2.0,9.0,39,0.00,,,0.00,weatherlink.com 1.10,2013-07-18 17:58:00,
2013-07-18 12:13:00,79.1,51.0,29.84,WSW,250,0.0,5.0,38,0.00,,,0.00,weatherlink.com 1.10,2013-07-18 18:13:00,
2013-07-18 12:28:00,80.3,52.0,29.84,SW,232,4.0,6.0,37,0.00,,,0.00,weatherlink.com 1.10,2013-07-18 18:28:00,
2013-07-18 12:43:00,81.7,52.0,29.84,West,275,3.0,4.0,36,0.00,,,0.00,weatherlink.com 1.10,2013-07-18 18:43:00,
2013-07-18 12:58:00,82.4,53.0,29.83,South,184,3.0,9.0,36,0.00,,,0.00,weatherlink.com 1.10,2013-07-18 18:58:00,
2013-07-18 13:13:00,81.6,53.0,29.82,WSW,243,4.0,8.0,37,0.00,,,0.00,weatherlink.com 1.10,2013-07-18 19:13:00,
2013-07-18 13:28:00,81.6,53.0,29.82,SSW,205,1.0,6.0,37,0.00,,,0.00,weatherlink.com 1.10,2013-07-18 19:28:00,
2013-07-18 13:43:00,82.6,53.0,29.80,South,188,0.0,7.0,36,0.00,,,0.00,weatherlink.com 1.10,2013-07-18 19:43:00,
2013-07-18 13:58:00,82.6,52.0,29.80,South,189,2.0,11.0,35,0.00,,,0.00,weatherlink.com 1.10,2013-07-18 19:58:00,
2013-07-18 14:13:00,83.3,53.0,29.79,SSW,201,1.0,13.0,35,0.00,,,0.00,weatherlink.com 1.10,2013-07-18 20:13:00,
2013-07-18 14:28:00,83.7,53.0,29.79,South,186,4.0,14.0,35,0.00,,,0.00,weatherlink.com 1.10,2013-07-18 20:28:00,
2013-07-18 14:43:00,84.0,53.0,29.78,WNW,294,0.0,7.0,34,0.00,,,0.00,weatherlink.com 1.10,2013-07-18 20:43:00,
2013-07-18 14:58:00,83.3,53.0,29.78,SSW,192,2.0,9.0,35,0.00,,,0.00,weatherlink.com 1.10,2013-07-18 20:58:00,
2013-07-18 15:13:00,83.5,53.0,29.77,SSW,193,3.0,10.0,35,0.00,,,0.00,weatherlink.com 1.10,2013-07-18 21:13:00,
2013-07-18 15:28:00,84.5,53.0,29.76,South,178,5.0,12.0,34,0.00,,,0.00,weatherlink.com 1.10,2013-07-18 21:28:00,
2013-07-18 15:43:00,83.7,53.0,29.75,SW,226,0.0,12.0,35,0.00,,,0.00,weatherlink.com 1.10,2013-07-18 21:43:00,
2013-07-18 15:58:00,82.8,54.0,29.75,SSW,212,1.0,7.0,37,0.00,,,0.00,weatherlink.com 1.10,2013-07-18 21:58:00,
2013-07-18 16:13:00,83.6,54.0,29.74,South,182,2.0,9.0,36,0.00,,,0.00,weatherlink.com 1.10,2013-07-18 22:13:00,
2013-07-18 16:28:00,82.3,53.0,29.73,South,176,4.0,8.0,36,0.00,,,0.00,weatherlink.com 1.10,2013-07-18 22:28:00,
2013-07-18 16:43:00,83.8,53.0,29.72,South,175,4.0,8.0,35,0.00,,,0.00,weatherlink.com 1.10,2013-07-18 22:43:00,
2013-07-18 16:58:00,82.4,54.0,29.72,SSW,207,2.0,10.0,37,0.00,,,0.00,weatherlink.com 1.10,2013-07-18 22:58:00,
2013-07-18 17:13:00,82.7,54.0,29.72,South,190,2.0,16.0,37,0.00,,,0.00,weatherlink.com 1.10,2013-07-18 23:13:00,
2013-07-18 17:28:00,82.6,54.0,29.71,SW,232,0.0,16.0,37,0.00,,,0.00,weatherlink.com 1.10,2013-07-18 23:28:00,
2013-07-18 17:43:00,80.9,54.0,29.71,SSW,192,8.0,12.0,39,0.00,,,0.00,weatherlink.com 1.10,2013-07-18 23:43:00,
2013-07-18 17:58:00,82.5,54.0,29.70,South,188,0.0,11.0,37,0.00,,,0.00,weatherlink.com 1.10,2013-07-18 23:58:00,
2013-07-18 18:13:00,82.1,53.0,29.70,SSW,213,6.0,14.0,37,0.00,,,0.00,weatherlink.com 1.10,2013-07-19 00:13:00,
2013-07-18 18:28:00,82.1,54.0,29.71,South,181,2.0,15.0,38,0.00,,,0.00,weatherlink.com 1.10,2013-07-19 00:28:00,
2013-07-18 18:43:00,82.6,54.0,29.71,SSW,193,3.0,11.0,37,0.00,,,0.00,weatherlink.com 1.10,2013-07-19 00:43:00,
2013-07-18 18:58:00,82.5,54.0,29.72,SSW,198,3.0,9.0,37,0.00,,,0.00,weatherlink.com 1.10,2013-07-19 00:58:00,
2013-07-18 19:13:00,80.9,54.0,29.72,South,184,5.0,16.0,39,0.00,,,0.00,weatherlink.com 1.10,2013-07-19 01:13:00,
2013-07-18 19:28:00,80.0,54.0,29.72,SSW,202,4.0,18.0,40,0.00,,,0.00,weatherlink.com 1.10,2013-07-19 01:28:00,
2013-07-18 19:43:00,78.8,53.0,29.72,South,169,3.0,12.0,41,0.00,,,0.00,weatherlink.com 1.10,2013-07-19 01:43:00,
2013-07-18 19:58:00,78.2,53.0,29.73,SW,219,2.0,10.0,42,0.00,,,0.00,weatherlink.com 1.10,2013-07-19 01:58:00,
2013-07-18 20:13:00,77.3,53.0,29.73,SSW,206,4.0,9.0,43,0.00,,,0.00,weatherlink.com 1.10,2013-07-19 02:13:00,
2013-07-18 20:28:00,76.7,52.0,29.73,SSW,200,2.0,11.0,43,0.00,,,0.00,weatherlink.com 1.10,2013-07-19 02:28:00,
2013-07-18 20:43:00,76.2,53.0,29.74,South,181,5.0,9.0,44,0.00,,,0.00,weatherlink.com 1.10,2013-07-19 02:43:00,
2013-07-18 20:58:00,75.7,53.0,29.74,South,181,3.0,7.0,45,0.00,,,0.00,weatherlink.com 1.10,2013-07-19 02:58:00,
2013-07-18 21:13:00,75.1,53.0,29.74,South,189,1.0,7.0,46,0.00,,,0.00,weatherlink.com 1.10,2013-07-19 03:13:00,
2013-07-18 21:28:00,74.6,53.0,29.75,SSW,192,0.0,3.0,47,0.00,,,0.00,weatherlink.com 1.10,2013-07-19 03:28:00,
2013-07-18 21:44:00,74.0,53.0,29.75,South,190,0.0,3.0,48,0.00,,,0.00,weatherlink.com 1.10,2013-07-19 03:44:00,
2013-07-18 21:59:00,73.6,53.0,29.75,South,183,0.0,2.0,49,0.00,,,0.00,weatherlink.com 1.10,2013-07-19 03:59:00,
2013-07-18 22:14:00,73.1,53.0,29.76,South,187,0.0,3.0,50,0.00,,,0.00,weatherlink.com 1.10,2013-07-19 04:14:00,
2013-07-18 22:29:00,72.8,53.0,29.76,SSE,165,0.0,0.0,50,0.00,,,0.00,weatherlink.com 1.10,2013-07-19 04:29:00,
2013-07-18 22:44:00,72.2,53.0,29.76,SSE,165,0.0,0.0,52,0.00,,,0.00,weatherlink.com 1.10,2013-07-19 04:44:00,
2013-07-18 22:59:00,71.7,54.0,29.76,SSE,165,0.0,0.0,53,0.00,,,0.00,weatherlink.com 1.10,2013-07-19 04:59:00,
2013-07-18 23:14:00,71.6,53.0,29.76,SSE,165,0.0,0.0,53,0.00,,,0.00,weatherlink.com 1.10,2013-07-19 05:14:00,
2013-07-18 23:29:00,71.3,54.0,29.77,SSE,165,0.0,0.0,54,0.00,,,0.00,weatherlink.com 1.10,2013-07-19 05:29:00,
2013-07-18 23:44:00,71.0,54.0,29.77,SSE,165,0.0,0.0,55,0.00,,,0.00,weatherlink.com 1.10,2013-07-19 05:44:00,
2013-07-18 23:59:00,70.5,54.0,29.77,SSE,165,0.0,0.0,56,0.00,,,0.00,weatherlink.com 1.10,2013-07-19 05:59:00,